sensor_id;sensor_type;location;lat;lon;timestamp;P1;durP1;ratioP1;P2;durP2;ratioP2
3597;SDS011;1813;52.016;8.714;2023-01-23T00:00:50;38.77;;;22.00;;
3597;SDS011;1813;52.016;8.714;2023-01-23T00:03:24;38.57;;;20.73;;
3597;SDS011;1813;52.016;8.714;2023-01-23T00:06:01;41.00;;;21.80;;
3597;SDS011;1813;52.016;8.714;2023-01-23T00:08:37;43.03;;;22.80;;
3597;SDS011;1813;52.016;8.714;2023-01-23T00:11:12;39.17;;;22.13;;
3597;SDS011;1813;52.016;8.714;2023-01-23T00:13:48;41.07;;;22.23;;
3597;SDS011;1813;52.016;8.714;2023-01-23T00:16:23;41.70;;;21.87;;
3597;SDS011;1813;52.016;8.714;2023-01-23T00:18:58;41.10;;;22.00;;
3597;SDS011;1813;52.016;8.714;2023-01-23T00:21:35;42.50;;;22.20;;
3597;SDS011;1813;52.016;8.714;2023-01-23T00:24:09;43.47;;;22.90;;
3597;SDS011;1813;52.016;8.714;2023-01-23T00:26:46;46.77;;;24.13;;
3597;SDS011;1813;52.016;8.714;2023-01-23T00:29:19;46.17;;;24.47;;
3597;SDS011;1813;52.016;8.714;2023-01-23T00:31:53;52.27;;;26.33;;
3597;SDS011;1813;52.016;8.714;2023-01-23T00:34:28;48.77;;;24.63;;
3597;SDS011;1813;52.016;8.714;2023-01-23T00:37:04;51.93;;;26.97;;
3597;SDS011;1813;52.016;8.714;2023-01-23T00:39:38;46.80;;;24.90;;
3597;SDS011;1813;52.016;8.714;2023-01-23T00:42:16;49.00;;;25.33;;
3597;SDS011;1813;52.016;8.714;2023-01-23T00:44:50;46.80;;;25.37;;
3597;SDS011;1813;52.016;8.714;2023-01-23T00:47:24;45.90;;;24.13;;
3597;SDS011;1813;52.016;8.714;2023-01-23T00:49:57;51.53;;;25.97;;
3597;SDS011;1813;52.016;8.714;2023-01-23T00:52:34;47.07;;;24.23;;
3597;SDS011;1813;52.016;8.714;2023-01-23T00:55:08;43.37;;;22.07;;
3597;SDS011;1813;52.016;8.714;2023-01-23T00:57:45;45.30;;;24.40;;
3597;SDS011;1813;52.016;8.714;2023-01-23T01:00:19;52.10;;;26.57;;
3597;SDS011;1813;52.016;8.714;2023-01-23T01:02:53;49.50;;;25.83;;
3597;SDS011;1813;52.016;8.714;2023-01-23T01:05:26;47.90;;;26.03;;
3597;SDS011;1813;52.016;8.714;2023-01-23T01:08:03;54.17;;;27.20;;
3597;SDS011;1813;52.016;8.714;2023-01-23T01:10:38;53.23;;;26.80;;
3597;SDS011;1813;52.016;8.714;2023-01-23T01:13:12;50.60;;;26.30;;
3597;SDS011;1813;52.016;8.714;2023-01-23T01:15:50;51.43;;;27.17;;
3597;SDS011;1813;52.016;8.714;2023-01-23T01:18:25;54.50;;;26.70;;
3597;SDS011;1813;52.016;8.714;2023-01-23T01:20:59;51.73;;;25.97;;
3597;SDS011;1813;52.016;8.714;2023-01-23T01:23:35;52.67;;;24.90;;
3597;SDS011;1813;52.016;8.714;2023-01-23T01:26:09;51.80;;;25.63;;
3597;SDS011;1813;52.016;8.714;2023-01-23T01:28:43;49.97;;;25.20;;
3597;SDS011;1813;52.016;8.714;2023-01-23T01:31:18;52.63;;;24.07;;
3597;SDS011;1813;52.016;8.714;2023-01-23T01:33:53;51.10;;;24.57;;
3597;SDS011;1813;52.016;8.714;2023-01-23T01:36:29;53.50;;;25.73;;
3597;SDS011;1813;52.016;8.714;2023-01-23T01:39:05;45.83;;;23.23;;
3597;SDS011;1813;52.016;8.714;2023-01-23T01:41:39;50.57;;;23.97;;
3597;SDS011;1813;52.016;8.714;2023-01-23T01:44:14;45.17;;;22.67;;
3597;SDS011;1813;52.016;8.714;2023-01-23T01:46:49;46.87;;;22.87;;
3597;SDS011;1813;52.016;8.714;2023-01-23T01:49:26;48.03;;;22.77;;
3597;SDS011;1813;52.016;8.714;2023-01-23T01:52:07;49.03;;;22.73;;
3597;SDS011;1813;52.016;8.714;2023-01-23T01:54:46;43.40;;;21.73;;
3597;SDS011;1813;52.016;8.714;2023-01-23T01:57:23;46.50;;;22.57;;
3597;SDS011;1813;52.016;8.714;2023-01-23T02:00:03;46.63;;;21.77;;
3597;SDS011;1813;52.016;8.714;2023-01-23T02:02:49;43.67;;;21.87;;
3597;SDS011;1813;52.016;8.714;2023-01-23T02:05:28;44.07;;;21.00;;
3597;SDS011;1813;52.016;8.714;2023-01-23T02:08:05;46.27;;;22.50;;
3597;SDS011;1813;52.016;8.714;2023-01-23T02:10:50;47.77;;;22.33;;
3597;SDS011;1813;52.016;8.714;2023-01-23T02:13:25;43.33;;;21.50;;
3597;SDS011;1813;52.016;8.714;2023-01-23T02:16:04;38.50;;;18.20;;
3597;SDS011;1813;52.016;8.714;2023-01-23T02:18:41;38.37;;;19.30;;
3597;SDS011;1813;52.016;8.714;2023-01-23T02:21:20;35.53;;;18.37;;
3597;SDS011;1813;52.016;8.714;2023-01-23T02:24:02;36.67;;;19.50;;
3597;SDS011;1813;52.016;8.714;2023-01-23T02:26:49;35.57;;;17.17;;
3597;SDS011;1813;52.016;8.714;2023-01-23T02:29:22;37.03;;;19.00;;
3597;SDS011;1813;52.016;8.714;2023-01-23T02:31:59;37.80;;;19.27;;
3597;SDS011;1813;52.016;8.714;2023-01-23T02:34:34;31.03;;;16.80;;
3597;SDS011;1813;52.016;8.714;2023-01-23T02:37:09;32.37;;;17.60;;
3597;SDS011;1813;52.016;8.714;2023-01-23T02:39:44;31.13;;;16.33;;
3597;SDS011;1813;52.016;8.714;2023-01-23T02:42:25;29.73;;;16.47;;
3597;SDS011;1813;52.016;8.714;2023-01-23T02:45:00;29.93;;;16.20;;
3597;SDS011;1813;52.016;8.714;2023-01-23T02:47:34;26.27;;;15.00;;
3597;SDS011;1813;52.016;8.714;2023-01-23T02:50:08;28.10;;;15.73;;
3597;SDS011;1813;52.016;8.714;2023-01-23T02:52:42;24.63;;;14.90;;
3597;SDS011;1813;52.016;8.714;2023-01-23T02:55:18;27.47;;;16.30;;
3597;SDS011;1813;52.016;8.714;2023-01-23T02:57:57;28.70;;;16.53;;
3597;SDS011;1813;52.016;8.714;2023-01-23T03:00:51;28.13;;;15.37;;
3597;SDS011;1813;52.016;8.714;2023-01-23T03:03:22;31.37;;;17.20;;
3597;SDS011;1813;52.016;8.714;2023-01-23T03:05:56;24.53;;;14.23;;
3597;SDS011;1813;52.016;8.714;2023-01-23T03:08:33;24.47;;;14.53;;
3597;SDS011;1813;52.016;8.714;2023-01-23T03:11:19;26.33;;;14.50;;
3597;SDS011;1813;52.016;8.714;2023-01-23T03:13:56;25.87;;;15.40;;
3597;SDS011;1813;52.016;8.714;2023-01-23T03:16:30;27.60;;;15.20;;
3597;SDS011;1813;52.016;8.714;2023-01-23T03:19:05;26.37;;;15.43;;
3597;SDS011;1813;52.016;8.714;2023-01-23T03:21:40;27.70;;;15.10;;
3597;SDS011;1813;52.016;8.714;2023-01-23T03:24:15;25.63;;;14.60;;
3597;SDS011;1813;52.016;8.714;2023-01-23T03:26:50;29.67;;;15.93;;
3597;SDS011;1813;52.016;8.714;2023-01-23T03:29:31;26.67;;;14.93;;
3597;SDS011;1813;52.016;8.714;2023-01-23T03:32:18;29.30;;;16.27;;
3597;SDS011;1813;52.016;8.714;2023-01-23T03:34:58;28.00;;;16.00;;
3597;SDS011;1813;52.016;8.714;2023-01-23T03:37:32;29.30;;;16.07;;
3597;SDS011;1813;52.016;8.714;2023-01-23T03:40:10;32.93;;;17.20;;
3597;SDS011;1813;52.016;8.714;2023-01-23T03:43:09;32.80;;;17.07;;
3597;SDS011;1813;52.016;8.714;2023-01-23T03:45:51;33.37;;;16.93;;
3597;SDS011;1813;52.016;8.714;2023-01-23T03:48:25;34.00;;;18.33;;
3597;SDS011;1813;52.016;8.714;2023-01-23T03:51:01;33.87;;;17.23;;
3597;SDS011;1813;52.016;8.714;2023-01-23T03:53:37;32.10;;;17.60;;
3597;SDS011;1813;52.016;8.714;2023-01-23T03:56:11;32.37;;;18.07;;
3597;SDS011;1813;52.016;8.714;2023-01-23T03:58:45;35.43;;;17.80;;
3597;SDS011;1813;52.016;8.714;2023-01-23T04:01:22;33.87;;;18.17;;
3597;SDS011;1813;52.016;8.714;2023-01-23T04:03:56;33.03;;;17.20;;
3597;SDS011;1813;52.016;8.714;2023-01-23T04:06:29;35.30;;;18.07;;
3597;SDS011;1813;52.016;8.714;2023-01-23T04:09:03;34.63;;;19.20;;
3597;SDS011;1813;52.016;8.714;2023-01-23T04:11:37;36.93;;;17.90;;
3597;SDS011;1813;52.016;8.714;2023-01-23T04:14:12;31.20;;;17.60;;
3597;SDS011;1813;52.016;8.714;2023-01-23T04:16:50;33.53;;;18.50;;
3597;SDS011;1813;52.016;8.714;2023-01-23T04:19:23;34.40;;;18.50;;
3597;SDS011;1813;52.016;8.714;2023-01-23T04:21:57;39.00;;;20.40;;
3597;SDS011;1813;52.016;8.714;2023-01-23T04:24:36;37.50;;;20.10;;
3597;SDS011;1813;52.016;8.714;2023-01-23T04:27:10;41.10;;;19.80;;
3597;SDS011;1813;52.016;8.714;2023-01-23T04:29:43;38.00;;;19.57;;
3597;SDS011;1813;52.016;8.714;2023-01-23T04:32:20;38.40;;;19.77;;
3597;SDS011;1813;52.016;8.714;2023-01-23T04:34:54;38.83;;;20.27;;
3597;SDS011;1813;52.016;8.714;2023-01-23T04:37:29;36.90;;;18.90;;
3597;SDS011;1813;52.016;8.714;2023-01-23T04:40:05;39.67;;;19.97;;
3597;SDS011;1813;52.016;8.714;2023-01-23T04:42:51;34.10;;;19.03;;
3597;SDS011;1813;52.016;8.714;2023-01-23T04:45:35;35.30;;;17.90;;
3597;SDS011;1813;52.016;8.714;2023-01-23T04:48:30;37.80;;;19.77;;
3597;SDS011;1813;52.016;8.714;2023-01-23T04:51:04;41.53;;;19.50;;
3597;SDS011;1813;52.016;8.714;2023-01-23T04:53:38;36.70;;;19.47;;
3597;SDS011;1813;52.016;8.714;2023-01-23T04:56:12;40.00;;;18.63;;
3597;SDS011;1813;52.016;8.714;2023-01-23T04:58:46;40.27;;;19.47;;
3597;SDS011;1813;52.016;8.714;2023-01-23T05:01:23;38.40;;;19.97;;
3597;SDS011;1813;52.016;8.714;2023-01-23T05:04:05;40.70;;;19.80;;
3597;SDS011;1813;52.016;8.714;2023-01-23T05:06:39;41.37;;;19.63;;
3597;SDS011;1813;52.016;8.714;2023-01-23T05:09:15;36.27;;;18.63;;
3597;SDS011;1813;52.016;8.714;2023-01-23T05:11:54;37.73;;;18.57;;
3597;SDS011;1813;52.016;8.714;2023-01-23T05:14:31;35.37;;;18.33;;
3597;SDS011;1813;52.016;8.714;2023-01-23T05:17:05;35.40;;;18.23;;
3597;SDS011;1813;52.016;8.714;2023-01-23T05:19:47;32.63;;;17.50;;
3597;SDS011;1813;52.016;8.714;2023-01-23T05:22:21;30.70;;;16.13;;
3597;SDS011;1813;52.016;8.714;2023-01-23T05:24:57;31.70;;;17.53;;
3597;SDS011;1813;52.016;8.714;2023-01-23T05:27:34;31.80;;;16.60;;
3597;SDS011;1813;52.016;8.714;2023-01-23T05:30:09;30.53;;;16.17;;
3597;SDS011;1813;52.016;8.714;2023-01-23T05:32:44;25.40;;;14.00;;
3597;SDS011;1813;52.016;8.714;2023-01-23T05:35:26;30.57;;;16.37;;
3597;SDS011;1813;52.016;8.714;2023-01-23T05:38:02;28.93;;;15.70;;
3597;SDS011;1813;52.016;8.714;2023-01-23T05:40:36;27.10;;;14.77;;
3597;SDS011;1813;52.016;8.714;2023-01-23T05:43:39;30.43;;;16.10;;
3597;SDS011;1813;52.016;8.714;2023-01-23T05:46:32;30.87;;;15.70;;
3597;SDS011;1813;52.016;8.714;2023-01-23T05:49:08;25.13;;;14.83;;
3597;SDS011;1813;52.016;8.714;2023-01-23T05:51:45;26.17;;;14.87;;
3597;SDS011;1813;52.016;8.714;2023-01-23T05:54:19;25.30;;;14.43;;
3597;SDS011;1813;52.016;8.714;2023-01-23T05:56:53;28.90;;;15.67;;
3597;SDS011;1813;52.016;8.714;2023-01-23T05:59:46;28.97;;;15.87;;
3597;SDS011;1813;52.016;8.714;2023-01-23T06:03:02;25.30;;;14.80;;
3597;SDS011;1813;52.016;8.714;2023-01-23T06:05:51;30.23;;;15.83;;
3597;SDS011;1813;52.016;8.714;2023-01-23T06:08:28;26.00;;;15.17;;
3597;SDS011;1813;52.016;8.714;2023-01-23T06:11:02;25.83;;;15.77;;
3597;SDS011;1813;52.016;8.714;2023-01-23T06:13:38;31.47;;;16.50;;
3597;SDS011;1813;52.016;8.714;2023-01-23T06:16:12;29.43;;;15.90;;
3597;SDS011;1813;52.016;8.714;2023-01-23T06:18:47;30.60;;;17.00;;
3597;SDS011;1813;52.016;8.714;2023-01-23T06:21:22;30.77;;;17.67;;
3597;SDS011;1813;52.016;8.714;2023-01-23T06:24:00;30.83;;;16.70;;
3597;SDS011;1813;52.016;8.714;2023-01-23T06:26:35;31.20;;;17.17;;
3597;SDS011;1813;52.016;8.714;2023-01-23T06:29:12;29.33;;;17.17;;
3597;SDS011;1813;52.016;8.714;2023-01-23T06:31:48;34.37;;;18.50;;
3597;SDS011;1813;52.016;8.714;2023-01-23T06:34:25;34.30;;;18.70;;
3597;SDS011;1813;52.016;8.714;2023-01-23T06:37:06;38.13;;;19.30;;
3597;SDS011;1813;52.016;8.714;2023-01-23T06:39:50;33.13;;;18.60;;
3597;SDS011;1813;52.016;8.714;2023-01-23T06:42:24;36.20;;;19.23;;
3597;SDS011;1813;52.016;8.714;2023-01-23T06:44:58;40.13;;;20.33;;
3597;SDS011;1813;52.016;8.714;2023-01-23T06:47:34;39.00;;;20.37;;
3597;SDS011;1813;52.016;8.714;2023-01-23T06:50:10;37.07;;;19.23;;
3597;SDS011;1813;52.016;8.714;2023-01-23T06:52:45;39.37;;;20.80;;
3597;SDS011;1813;52.016;8.714;2023-01-23T06:55:21;39.00;;;19.77;;
3597;SDS011;1813;52.016;8.714;2023-01-23T06:57:55;41.63;;;21.27;;
3597;SDS011;1813;52.016;8.714;2023-01-23T07:00:29;39.67;;;20.13;;
3597;SDS011;1813;52.016;8.714;2023-01-23T07:03:05;43.87;;;19.57;;
3597;SDS011;1813;52.016;8.714;2023-01-23T07:05:41;39.47;;;19.63;;
3597;SDS011;1813;52.016;8.714;2023-01-23T07:08:16;37.67;;;18.93;;
3597;SDS011;1813;52.016;8.714;2023-01-23T07:10:55;39.93;;;19.50;;
3597;SDS011;1813;52.016;8.714;2023-01-23T07:13:30;35.97;;;18.83;;
3597;SDS011;1813;52.016;8.714;2023-01-23T07:16:07;36.40;;;17.60;;
3597;SDS011;1813;52.016;8.714;2023-01-23T07:18:43;39.03;;;18.73;;
3597;SDS011;1813;52.016;8.714;2023-01-23T07:21:16;37.53;;;17.57;;
3597;SDS011;1813;52.016;8.714;2023-01-23T07:23:50;40.30;;;19.10;;
3597;SDS011;1813;52.016;8.714;2023-01-23T07:26:27;36.90;;;18.23;;
3597;SDS011;1813;52.016;8.714;2023-01-23T07:29:01;36.43;;;17.90;;
3597;SDS011;1813;52.016;8.714;2023-01-23T07:31:34;36.43;;;18.90;;
3597;SDS011;1813;52.016;8.714;2023-01-23T07:34:08;39.60;;;18.77;;
3597;SDS011;1813;52.016;8.714;2023-01-23T07:36:42;35.87;;;17.60;;
3597;SDS011;1813;52.016;8.714;2023-01-23T07:39:16;37.20;;;19.80;;
3597;SDS011;1813;52.016;8.714;2023-01-23T07:41:52;38.63;;;20.00;;
3597;SDS011;1813;52.016;8.714;2023-01-23T07:44:31;37.67;;;18.83;;
3597;SDS011;1813;52.016;8.714;2023-01-23T07:47:06;39.13;;;19.73;;
3597;SDS011;1813;52.016;8.714;2023-01-23T07:49:40;33.90;;;17.47;;
3597;SDS011;1813;52.016;8.714;2023-01-23T07:52:14;34.80;;;18.63;;
3597;SDS011;1813;52.016;8.714;2023-01-23T07:54:47;36.27;;;18.40;;
3597;SDS011;1813;52.016;8.714;2023-01-23T07:57:24;32.77;;;17.90;;
3597;SDS011;1813;52.016;8.714;2023-01-23T07:59:58;31.97;;;17.67;;
3597;SDS011;1813;52.016;8.714;2023-01-23T08:02:45;34.00;;;18.10;;
3597;SDS011;1813;52.016;8.714;2023-01-23T08:05:19;34.10;;;18.50;;
3597;SDS011;1813;52.016;8.714;2023-01-23T08:07:53;38.50;;;19.57;;
3597;SDS011;1813;52.016;8.714;2023-01-23T08:10:28;35.20;;;19.50;;
3597;SDS011;1813;52.016;8.714;2023-01-23T08:13:05;36.13;;;19.87;;
3597;SDS011;1813;52.016;8.714;2023-01-23T08:15:41;33.50;;;19.00;;
3597;SDS011;1813;52.016;8.714;2023-01-23T08:18:15;34.53;;;18.70;;
3597;SDS011;1813;52.016;8.714;2023-01-23T08:20:52;37.70;;;20.10;;
3597;SDS011;1813;52.016;8.714;2023-01-23T08:23:27;39.20;;;20.33;;
3597;SDS011;1813;52.016;8.714;2023-01-23T08:26:03;34.90;;;19.97;;
3597;SDS011;1813;52.016;8.714;2023-01-23T08:28:42;36.07;;;20.03;;
3597;SDS011;1813;52.016;8.714;2023-01-23T08:31:17;38.30;;;21.30;;
3597;SDS011;1813;52.016;8.714;2023-01-23T08:33:51;37.73;;;20.27;;
3597;SDS011;1813;52.016;8.714;2023-01-23T08:36:26;38.37;;;20.63;;
3597;SDS011;1813;52.016;8.714;2023-01-23T08:39:00;36.83;;;19.60;;
3597;SDS011;1813;52.016;8.714;2023-01-23T08:41:34;35.30;;;20.10;;
3597;SDS011;1813;52.016;8.714;2023-01-23T08:44:10;35.63;;;20.03;;
3597;SDS011;1813;52.016;8.714;2023-01-23T08:46:44;33.73;;;18.70;;
3597;SDS011;1813;52.016;8.714;2023-01-23T08:49:20;37.47;;;20.07;;
3597;SDS011;1813;52.016;8.714;2023-01-23T08:51:54;29.80;;;18.03;;
3597;SDS011;1813;52.016;8.714;2023-01-23T08:54:29;31.03;;;18.17;;
3597;SDS011;1813;52.016;8.714;2023-01-23T08:57:05;33.80;;;19.07;;
3597;SDS011;1813;52.016;8.714;2023-01-23T08:59:43;28.47;;;17.10;;
3597;SDS011;1813;52.016;8.714;2023-01-23T09:02:22;31.53;;;17.43;;
3597;SDS011;1813;52.016;8.714;2023-01-23T09:04:56;31.17;;;17.83;;
3597;SDS011;1813;52.016;8.714;2023-01-23T09:07:30;33.73;;;17.67;;
3597;SDS011;1813;52.016;8.714;2023-01-23T09:10:06;29.20;;;17.67;;
3597;SDS011;1813;52.016;8.714;2023-01-23T09:12:43;29.63;;;17.17;;
3597;SDS011;1813;52.016;8.714;2023-01-23T09:15:20;25.87;;;15.93;;
3597;SDS011;1813;52.016;8.714;2023-01-23T09:17:54;29.80;;;17.00;;
3597;SDS011;1813;52.016;8.714;2023-01-23T09:20:30;29.13;;;16.77;;
3597;SDS011;1813;52.016;8.714;2023-01-23T09:23:05;27.87;;;17.10;;
3597;SDS011;1813;52.016;8.714;2023-01-23T09:25:40;27.77;;;17.30;;
3597;SDS011;1813;52.016;8.714;2023-01-23T09:28:15;26.23;;;15.63;;
3597;SDS011;1813;52.016;8.714;2023-01-23T09:30:51;25.07;;;15.40;;
3597;SDS011;1813;52.016;8.714;2023-01-23T09:33:25;27.67;;;16.30;;
3597;SDS011;1813;52.016;8.714;2023-01-23T09:35:59;28.20;;;16.53;;
3597;SDS011;1813;52.016;8.714;2023-01-23T09:38:33;27.13;;;15.67;;
3597;SDS011;1813;52.016;8.714;2023-01-23T09:41:08;27.60;;;16.50;;
3597;SDS011;1813;52.016;8.714;2023-01-23T09:43:49;22.60;;;15.20;;
3597;SDS011;1813;52.016;8.714;2023-01-23T09:46:34;25.00;;;15.73;;
3597;SDS011;1813;52.016;8.714;2023-01-23T09:49:11;24.70;;;16.40;;
3597;SDS011;1813;52.016;8.714;2023-01-23T09:51:53;26.53;;;14.97;;
3597;SDS011;1813;52.016;8.714;2023-01-23T09:54:32;30.27;;;17.60;;
3597;SDS011;1813;52.016;8.714;2023-01-23T09:57:11;26.17;;;15.73;;
3597;SDS011;1813;52.016;8.714;2023-01-23T09:59:49;25.17;;;15.73;;
3597;SDS011;1813;52.016;8.714;2023-01-23T10:02:27;24.57;;;16.33;;
3597;SDS011;1813;52.016;8.714;2023-01-23T10:05:01;26.77;;;16.00;;
3597;SDS011;1813;52.016;8.714;2023-01-23T10:07:45;29.93;;;18.53;;
3597;SDS011;1813;52.016;8.714;2023-01-23T10:10:39;25.20;;;16.20;;
3597;SDS011;1813;52.016;8.714;2023-01-23T10:13:21;26.07;;;17.33;;
3597;SDS011;1813;52.016;8.714;2023-01-23T10:16:21;31.40;;;18.50;;
3597;SDS011;1813;52.016;8.714;2023-01-23T10:19:18;31.20;;;19.03;;
3597;SDS011;1813;52.016;8.714;2023-01-23T10:22:07;30.90;;;19.10;;
3597;SDS011;1813;52.016;8.714;2023-01-23T10:24:57;30.80;;;18.17;;
3597;SDS011;1813;52.016;8.714;2023-01-23T10:27:37;28.50;;;17.90;;
3597;SDS011;1813;52.016;8.714;2023-01-23T10:30:16;28.60;;;17.77;;
3597;SDS011;1813;52.016;8.714;2023-01-23T10:32:55;28.67;;;18.60;;
3597;SDS011;1813;52.016;8.714;2023-01-23T10:35:35;28.33;;;18.67;;
3597;SDS011;1813;52.016;8.714;2023-01-23T10:38:22;28.67;;;18.87;;
3597;SDS011;1813;52.016;8.714;2023-01-23T10:40:59;29.63;;;19.07;;
3597;SDS011;1813;52.016;8.714;2023-01-23T10:43:50;29.97;;;18.90;;
3597;SDS011;1813;52.016;8.714;2023-01-23T10:46:28;27.53;;;17.67;;
3597;SDS011;1813;52.016;8.714;2023-01-23T10:49:05;32.40;;;18.90;;
3597;SDS011;1813;52.016;8.714;2023-01-23T10:51:47;29.17;;;18.73;;
3597;SDS011;1813;52.016;8.714;2023-01-23T10:54:22;31.87;;;19.87;;
3597;SDS011;1813;52.016;8.714;2023-01-23T10:56:56;30.20;;;18.90;;
3597;SDS011;1813;52.016;8.714;2023-01-23T10:59:34;29.70;;;18.30;;
3597;SDS011;1813;52.016;8.714;2023-01-23T11:02:19;30.30;;;18.07;;
3597;SDS011;1813;52.016;8.714;2023-01-23T11:04:58;30.27;;;18.67;;
3597;SDS011;1813;52.016;8.714;2023-01-23T11:07:38;30.23;;;18.67;;
3597;SDS011;1813;52.016;8.714;2023-01-23T11:10:15;28.80;;;18.03;;
3597;SDS011;1813;52.016;8.714;2023-01-23T11:12:54;31.03;;;19.70;;
3597;SDS011;1813;52.016;8.714;2023-01-23T11:15:30;27.50;;;18.10;;
3597;SDS011;1813;52.016;8.714;2023-01-23T11:18:15;31.43;;;20.10;;
3597;SDS011;1813;52.016;8.714;2023-01-23T11:21:02;29.63;;;19.07;;
3597;SDS011;1813;52.016;8.714;2023-01-23T11:23:39;32.60;;;19.83;;
3597;SDS011;1813;52.016;8.714;2023-01-23T11:29:18;32.93;;;20.73;;
3597;SDS011;1813;52.016;8.714;2023-01-23T11:31:56;31.00;;;19.30;;
3597;SDS011;1813;52.016;8.714;2023-01-23T11:34:35;34.17;;;21.00;;
3597;SDS011;1813;52.016;8.714;2023-01-23T11:37:15;32.60;;;20.70;;
3597;SDS011;1813;52.016;8.714;2023-01-23T11:39:58;31.83;;;19.30;;
3597;SDS011;1813;52.016;8.714;2023-01-23T11:42:36;33.63;;;19.53;;
3597;SDS011;1813;52.016;8.714;2023-01-23T11:45:12;32.10;;;18.80;;
3597;SDS011;1813;52.016;8.714;2023-01-23T11:47:59;30.20;;;18.60;;
3597;SDS011;1813;52.016;8.714;2023-01-23T11:50:43;32.97;;;18.43;;
3597;SDS011;1813;52.016;8.714;2023-01-23T11:53:23;31.07;;;18.33;;
3597;SDS011;1813;52.016;8.714;2023-01-23T11:59:33;30.00;;;18.40;;
3597;SDS011;1813;52.016;8.714;2023-01-23T12:08:29;33.60;;;18.93;;
3597;SDS011;1813;52.016;8.714;2023-01-23T12:11:13;32.63;;;20.00;;
3597;SDS011;1813;52.016;8.714;2023-01-23T12:13:58;36.13;;;20.40;;
3597;SDS011;1813;52.016;8.714;2023-01-23T12:16:42;30.57;;;19.00;;
3597;SDS011;1813;52.016;8.714;2023-01-23T12:19:30;33.70;;;19.47;;
3597;SDS011;1813;52.016;8.714;2023-01-23T12:22:17;34.47;;;19.43;;
3597;SDS011;1813;52.016;8.714;2023-01-23T12:25:02;33.20;;;20.17;;
3597;SDS011;1813;52.016;8.714;2023-01-23T12:27:47;34.80;;;20.67;;
3597;SDS011;1813;52.016;8.714;2023-01-23T12:30:42;34.47;;;20.17;;
3597;SDS011;1813;52.016;8.714;2023-01-23T12:37:06;33.10;;;19.37;;
3597;SDS011;1813;52.016;8.714;2023-01-23T12:40:05;34.90;;;20.47;;
3597;SDS011;1813;52.016;8.714;2023-01-23T12:42:46;33.77;;;19.77;;
3597;SDS011;1813;52.016;8.714;2023-01-23T12:45:25;31.70;;;19.43;;
3597;SDS011;1813;52.016;8.714;2023-01-23T12:48:05;32.90;;;19.30;;
3597;SDS011;1813;52.016;8.714;2023-01-23T12:50:45;32.70;;;19.00;;
3597;SDS011;1813;52.016;8.714;2023-01-23T12:53:24;33.00;;;19.40;;
3597;SDS011;1813;52.016;8.714;2023-01-23T12:56:03;32.97;;;19.27;;
3597;SDS011;1813;52.016;8.714;2023-01-23T12:58:41;37.47;;;20.93;;
3597;SDS011;1813;52.016;8.714;2023-01-23T13:01:33;35.93;;;20.37;;
3597;SDS011;1813;52.016;8.714;2023-01-23T13:04:35;36.43;;;20.30;;
3597;SDS011;1813;52.016;8.714;2023-01-23T13:07:33;35.73;;;19.90;;
3597;SDS011;1813;52.016;8.714;2023-01-23T13:13:41;38.03;;;21.33;;
3597;SDS011;1813;52.016;8.714;2023-01-23T13:16:18;35.00;;;21.20;;
3597;SDS011;1813;52.016;8.714;2023-01-23T13:18:53;34.50;;;19.67;;
3597;SDS011;1813;52.016;8.714;2023-01-23T13:21:46;35.73;;;20.33;;
3597;SDS011;1813;52.016;8.714;2023-01-23T13:24:42;31.77;;;18.90;;
3597;SDS011;1813;52.016;8.714;2023-01-23T13:27:38;34.30;;;19.50;;
3597;SDS011;1813;52.016;8.714;2023-01-23T13:36:35;33.47;;;19.77;;
3597;SDS011;1813;52.016;8.714;2023-01-23T13:39:21;32.60;;;18.70;;
3597;SDS011;1813;52.016;8.714;2023-01-23T13:45:30;35.27;;;19.53;;
3597;SDS011;1813;52.016;8.714;2023-01-23T13:51:21;33.67;;;19.90;;
3597;SDS011;1813;52.016;8.714;2023-01-23T13:53:55;30.40;;;18.33;;
3597;SDS011;1813;52.016;8.714;2023-01-23T13:56:43;31.33;;;19.10;;
3597;SDS011;1813;52.016;8.714;2023-01-23T13:59:27;36.30;;;19.77;;
3597;SDS011;1813;52.016;8.714;2023-01-23T14:02:11;33.37;;;20.17;;
3597;SDS011;1813;52.016;8.714;2023-01-23T14:05:05;32.03;;;19.67;;
3597;SDS011;1813;52.016;8.714;2023-01-23T14:07:47;30.97;;;19.03;;
3597;SDS011;1813;52.016;8.714;2023-01-23T14:10:24;33.50;;;19.53;;
3597;SDS011;1813;52.016;8.714;2023-01-23T14:13:00;30.27;;;18.83;;
3597;SDS011;1813;52.016;8.714;2023-01-23T14:15:37;31.50;;;18.20;;
3597;SDS011;1813;52.016;8.714;2023-01-23T14:18:32;27.70;;;17.10;;
3597;SDS011;1813;52.016;8.714;2023-01-23T14:21:15;29.67;;;18.20;;
3597;SDS011;1813;52.016;8.714;2023-01-23T14:23:52;30.73;;;17.73;;
3597;SDS011;1813;52.016;8.714;2023-01-23T14:26:29;29.63;;;17.83;;
3597;SDS011;1813;52.016;8.714;2023-01-23T14:29:18;30.77;;;18.23;;
3597;SDS011;1813;52.016;8.714;2023-01-23T14:31:53;31.77;;;18.93;;
3597;SDS011;1813;52.016;8.714;2023-01-23T14:34:37;28.60;;;17.77;;
3597;SDS011;1813;52.016;8.714;2023-01-23T14:37:12;28.50;;;17.70;;
3597;SDS011;1813;52.016;8.714;2023-01-23T14:39:45;28.03;;;17.60;;
3597;SDS011;1813;52.016;8.714;2023-01-23T14:42:21;31.17;;;18.20;;
3597;SDS011;1813;52.016;8.714;2023-01-23T14:45:00;29.43;;;18.70;;
3597;SDS011;1813;52.016;8.714;2023-01-23T14:47:36;31.80;;;19.10;;
3597;SDS011;1813;52.016;8.714;2023-01-23T14:50:17;31.07;;;18.87;;
3597;SDS011;1813;52.016;8.714;2023-01-23T14:52:57;37.67;;;20.43;;
3597;SDS011;1813;52.016;8.714;2023-01-23T14:55:33;31.17;;;18.60;;
3597;SDS011;1813;52.016;8.714;2023-01-23T14:58:12;33.23;;;19.10;;
3597;SDS011;1813;52.016;8.714;2023-01-23T15:00:52;33.37;;;19.37;;
3597;SDS011;1813;52.016;8.714;2023-01-23T15:03:33;33.30;;;19.70;;
3597;SDS011;1813;52.016;8.714;2023-01-23T15:06:18;33.00;;;19.30;;
3597;SDS011;1813;52.016;8.714;2023-01-23T15:08:56;37.00;;;20.33;;
3597;SDS011;1813;52.016;8.714;2023-01-23T15:11:38;37.67;;;20.33;;
3597;SDS011;1813;52.016;8.714;2023-01-23T15:14:21;38.87;;;21.90;;
3597;SDS011;1813;52.016;8.714;2023-01-23T15:16:57;39.50;;;22.60;;
3597;SDS011;1813;52.016;8.714;2023-01-23T15:19:34;39.17;;;22.13;;
3597;SDS011;1813;52.016;8.714;2023-01-23T15:22:18;44.77;;;23.30;;
3597;SDS011;1813;52.016;8.714;2023-01-23T15:24:57;41.67;;;23.70;;
3597;SDS011;1813;52.016;8.714;2023-01-23T15:27:58;43.63;;;23.50;;
3597;SDS011;1813;52.016;8.714;2023-01-23T15:30:39;41.33;;;23.50;;
3597;SDS011;1813;52.016;8.714;2023-01-23T15:33:22;49.40;;;25.53;;
3597;SDS011;1813;52.016;8.714;2023-01-23T15:36:01;42.37;;;23.50;;
3597;SDS011;1813;52.016;8.714;2023-01-23T15:38:44;47.03;;;24.90;;
3597;SDS011;1813;52.016;8.714;2023-01-23T15:41:18;49.67;;;25.17;;
3597;SDS011;1813;52.016;8.714;2023-01-23T15:43:52;47.27;;;24.03;;
3597;SDS011;1813;52.016;8.714;2023-01-23T15:46:26;47.77;;;24.70;;
3597;SDS011;1813;52.016;8.714;2023-01-23T15:49:00;48.10;;;24.73;;
3597;SDS011;1813;52.016;8.714;2023-01-23T15:51:35;49.10;;;25.23;;
3597;SDS011;1813;52.016;8.714;2023-01-23T15:54:14;48.40;;;26.03;;
3597;SDS011;1813;52.016;8.714;2023-01-23T15:56:54;49.33;;;25.60;;
3597;SDS011;1813;52.016;8.714;2023-01-23T15:59:28;51.83;;;26.40;;
3597;SDS011;1813;52.016;8.714;2023-01-23T16:02:03;48.20;;;25.10;;
3597;SDS011;1813;52.016;8.714;2023-01-23T16:04:37;48.80;;;25.37;;
3597;SDS011;1813;52.016;8.714;2023-01-23T16:07:17;46.50;;;25.23;;
3597;SDS011;1813;52.016;8.714;2023-01-23T16:09:57;47.47;;;25.87;;
3597;SDS011;1813;52.016;8.714;2023-01-23T16:12:31;48.17;;;25.47;;
3597;SDS011;1813;52.016;8.714;2023-01-23T16:15:11;47.40;;;25.37;;
3597;SDS011;1813;52.016;8.714;2023-01-23T16:17:47;52.37;;;26.73;;
3597;SDS011;1813;52.016;8.714;2023-01-23T16:20:25;49.37;;;25.53;;
3597;SDS011;1813;52.016;8.714;2023-01-23T16:23:04;47.53;;;25.77;;
3597;SDS011;1813;52.016;8.714;2023-01-23T16:25:46;54.23;;;27.27;;
3597;SDS011;1813;52.016;8.714;2023-01-23T16:28:22;54.23;;;26.73;;